Charles B. Wheeler Downtown Airport
KMKC : now visible

Airfield :











YOU CAN JOIN US ON...

 
LOGIN :

Register | Disclaimer

   EN    FR    IT 

 









Legend :    VFR   Marginal VFR   IFR   Intensive IFR   Very Intensive IFR
Visi :
Ceiling :
>= 8 km
>= 3000ft
5 to 8 km
1000 to 3000 ft
1500m to 5 km
500 to 1000 ft
800 to 1500m
200 to 500 ft
< 800m
< 200 ft
Symbols :   Thunderstorms  Fog  Heavy snow  Heavy precipitations  Wind > 20 kt







- Airport Elevation : 759 ft
- IATA code : MKC


KMKC - Charles B. Wheeler Downtown

CURRENT METAR :
  • 201954Z 19014G23KT 10SM SCT045 31/18 A2997 RMK AO2 PK WND 16027/1927 SLP140 T03060183

EXPIRED METARs :
  • 201854Z 17014G23KT 10SM FEW042 FEW070 31/19 A3000 RMK AO2 SLP150 T03060194
  • 201754Z 17011G20KT 10SM FEW042 30/19 A3002 RMK AO2 SLP156 T03000189 10306 20239 56010

TAF KMKC
Valid from the 20 at 18:00 until the 21 at 18:00 UTC


201832Z 2018/2118 17012KT P6SM SCT030
FM201900 17013KT P6SM BKN040
FM210100 17012KT P6SM OVC025
FM210300 17009KT P6SM OVC012
FM210700 18015G22KT P6SM VCTS OVC012CB
TEMPO 2111/2114 5SM -TSRA BR BKN008CB
No reported NOTAMs for that airfield.



MET'MAP, your aeronautical weather chart ! - Copyright ORBIFLY December 2007 - Disclaimer

ORBIFLY MET'MAP TEAM :

Programming & Development : Alexandra Zaïnal
Concept & Development : Baudouin d'Aumeries
Co-Development & Prog : Marc-Olivier Méhu
Technical & hardware support : Manuel Goepfert

Contact : metmap@orbifly.com




SOURCES & CREDITS :

   NOAA       Earth
Advisory